Terminal Aerodrome Forecast
Issued by NWS

Home | Current Version | Previous Version | Text Only | Print | Product List | Glossary Off
Versions: 1 2 3 4 5 6 7 8 9 10 11 12 13 14 15 16 17

000
FTUS43 KICT 150522
TAFSLN
TAF
KSLN 150522Z 1506/1606 31010KT P6SM BKN060
     FM150800 30007KT P6SM FEW060
     FM151400 24012KT P6SM FEW250
     FM151800 23012KT P6SM FEW250=

USA.gov is the U.S. government's official web portal to all federal, state and local government web resources and services.